sensor_id;sensor_type;location;lat;lon;timestamp;temperature;humidity
46309;DHT22;32037;50.820;6.494;2023-06-05T00:01:27;24.60;45.00
46309;DHT22;32037;50.820;6.494;2023-06-05T00:03:56;24.60;45.00
46309;DHT22;32037;50.820;6.494;2023-06-05T00:06:25;24.60;45.00
46309;DHT22;32037;50.820;6.494;2023-06-05T00:08:55;24.60;45.00
46309;DHT22;32037;50.820;6.494;2023-06-05T00:11:23;24.60;45.10
46309;DHT22;32037;50.820;6.494;2023-06-05T00:13:53;24.60;45.10
46309;DHT22;32037;50.820;6.494;2023-06-05T00:16:21;24.60;45.20
46309;DHT22;32037;50.820;6.494;2023-06-05T00:18:50;24.60;45.40
46309;DHT22;32037;50.820;6.494;2023-06-05T00:21:19;24.60;45.10
46309;DHT22;32037;50.820;6.494;2023-06-05T00:23:47;24.60;45.10
46309;DHT22;32037;50.820;6.494;2023-06-05T00:26:17;24.60;45.20
46309;DHT22;32037;50.820;6.494;2023-06-05T00:28:47;24.60;45.10
46309;DHT22;32037;50.820;6.494;2023-06-05T00:31:16;24.60;45.20
46309;DHT22;32037;50.820;6.494;2023-06-05T00:33:46;24.60;45.20
46309;DHT22;32037;50.820;6.494;2023-06-05T00:36:14;24.60;45.20
46309;DHT22;32037;50.820;6.494;2023-06-05T00:38:45;24.60;45.20
46309;DHT22;32037;50.820;6.494;2023-06-05T00:41:14;24.60;45.20
46309;DHT22;32037;50.820;6.494;2023-06-05T00:43:43;24.60;45.20
46309;DHT22;32037;50.820;6.494;2023-06-05T00:46:13;24.60;45.20
46309;DHT22;32037;50.820;6.494;2023-06-05T00:48:41;24.60;45.30
46309;DHT22;32037;50.820;6.494;2023-06-05T00:51:13;24.60;45.20
46309;DHT22;32037;50.820;6.494;2023-06-05T00:53:45;24.60;45.20
46309;DHT22;32037;50.820;6.494;2023-06-05T00:56:15;24.50;45.10
46309;DHT22;32037;50.820;6.494;2023-06-05T00:58:45;24.60;45.10
46309;DHT22;32037;50.820;6.494;2023-06-05T01:01:14;24.50;45.10
46309;DHT22;32037;50.820;6.494;2023-06-05T01:03:44;24.50;45.10
46309;DHT22;32037;50.820;6.494;2023-06-05T01:06:15;24.50;45.20
46309;DHT22;32037;50.820;6.494;2023-06-05T01:08:45;24.50;45.20
46309;DHT22;32037;50.820;6.494;2023-06-05T01:11:20;24.50;45.20
46309;DHT22;32037;50.820;6.494;2023-06-05T01:13:57;24.50;45.20
46309;DHT22;32037;50.820;6.494;2023-06-05T01:16:30;24.50;45.30
46309;DHT22;32037;50.820;6.494;2023-06-05T01:19:00;24.50;45.30
46309;DHT22;32037;50.820;6.494;2023-06-05T01:21:31;24.50;45.30
46309;DHT22;32037;50.820;6.494;2023-06-05T01:24:01;24.50;45.40
46309;DHT22;32037;50.820;6.494;2023-06-05T01:26:34;24.50;45.40
46309;DHT22;32037;50.820;6.494;2023-06-05T01:29:06;24.50;45.30
46309;DHT22;32037;50.820;6.494;2023-06-05T01:31:40;24.50;45.40
46309;DHT22;32037;50.820;6.494;2023-06-05T01:34:11;24.50;46.40
46309;DHT22;32037;50.820;6.494;2023-06-05T01:36:47;24.50;45.30
46309;DHT22;32037;50.820;6.494;2023-06-05T01:39:19;24.50;45.40
46309;DHT22;32037;50.820;6.494;2023-06-05T01:41:50;24.50;45.30
46309;DHT22;32037;50.820;6.494;2023-06-05T01:44:19;24.50;45.40
46309;DHT22;32037;50.820;6.494;2023-06-05T01:46:49;24.50;45.30
46309;DHT22;32037;50.820;6.494;2023-06-05T01:49:19;24.50;46.60
46309;DHT22;32037;50.820;6.494;2023-06-05T01:51:48;24.50;45.40
46309;DHT22;32037;50.820;6.494;2023-06-05T01:54:19;24.50;45.50
46309;DHT22;32037;50.820;6.494;2023-06-05T01:56:50;24.50;45.50
46309;DHT22;32037;50.820;6.494;2023-06-05T01:59:20;24.40;45.40
46309;DHT22;32037;50.820;6.494;2023-06-05T02:01:49;24.40;45.40
46309;DHT22;32037;50.820;6.494;2023-06-05T02:04:17;24.50;45.50
46309;DHT22;32037;50.820;6.494;2023-06-05T02:06:46;24.40;45.50
46309;DHT22;32037;50.820;6.494;2023-06-05T02:09:20;24.40;45.50
46309;DHT22;32037;50.820;6.494;2023-06-05T02:11:52;24.40;45.50
46309;DHT22;32037;50.820;6.494;2023-06-05T02:14:20;24.40;45.60
46309;DHT22;32037;50.820;6.494;2023-06-05T02:16:50;24.40;45.40
46309;DHT22;32037;50.820;6.494;2023-06-05T02:19:18;24.40;45.60
46309;DHT22;32037;50.820;6.494;2023-06-05T02:21:47;24.40;45.60
46309;DHT22;32037;50.820;6.494;2023-06-05T02:24:15;24.40;45.60
46309;DHT22;32037;50.820;6.494;2023-06-05T02:26:47;24.40;45.60
46309;DHT22;32037;50.820;6.494;2023-06-05T02:29:16;24.40;45.70
46309;DHT22;32037;50.820;6.494;2023-06-05T02:31:45;24.30;45.50
46309;DHT22;32037;50.820;6.494;2023-06-05T02:34:15;24.40;45.60
46309;DHT22;32037;50.820;6.494;2023-06-05T02:36:43;24.30;45.60
46309;DHT22;32037;50.820;6.494;2023-06-05T02:39:13;24.30;45.50
46309;DHT22;32037;50.820;6.494;2023-06-05T02:41:43;24.30;45.60
46309;DHT22;32037;50.820;6.494;2023-06-05T02:44:14;24.30;45.60
46309;DHT22;32037;50.820;6.494;2023-06-05T02:46:42;24.30;45.60
46309;DHT22;32037;50.820;6.494;2023-06-05T02:49:12;24.30;45.70
46309;DHT22;32037;50.820;6.494;2023-06-05T02:51:41;24.30;45.80
46309;DHT22;32037;50.820;6.494;2023-06-05T02:54:10;24.30;45.70
46309;DHT22;32037;50.820;6.494;2023-06-05T02:56:40;24.30;45.70
46309;DHT22;32037;50.820;6.494;2023-06-05T02:59:14;24.30;45.80
46309;DHT22;32037;50.820;6.494;2023-06-05T03:01:43;24.30;45.80
46309;DHT22;32037;50.820;6.494;2023-06-05T03:04:16;24.30;45.70
46309;DHT22;32037;50.820;6.494;2023-06-05T03:06:51;24.30;45.80
46309;DHT22;32037;50.820;6.494;2023-06-05T03:09:25;24.30;45.80
46309;DHT22;32037;50.820;6.494;2023-06-05T03:11:53;24.30;45.80
46309;DHT22;32037;50.820;6.494;2023-06-05T03:14:26;24.30;45.90
46309;DHT22;32037;50.820;6.494;2023-06-05T03:16:54;24.30;45.90
46309;DHT22;32037;50.820;6.494;2023-06-05T03:19:25;24.20;45.90
46309;DHT22;32037;50.820;6.494;2023-06-05T03:21:58;24.30;46.00
46309;DHT22;32037;50.820;6.494;2023-06-05T03:24:28;24.20;46.00
46309;DHT22;32037;50.820;6.494;2023-06-05T03:27:03;24.20;45.80
46309;DHT22;32037;50.820;6.494;2023-06-05T03:29:34;24.20;45.90
46309;DHT22;32037;50.820;6.494;2023-06-05T03:32:06;24.20;46.00
46309;DHT22;32037;50.820;6.494;2023-06-05T03:34:34;24.20;46.00
46309;DHT22;32037;50.820;6.494;2023-06-05T03:37:05;24.20;45.90
46309;DHT22;32037;50.820;6.494;2023-06-05T03:39:33;24.20;46.00
46309;DHT22;32037;50.820;6.494;2023-06-05T03:42:02;24.20;46.00
46309;DHT22;32037;50.820;6.494;2023-06-05T03:44:36;24.10;46.00
46309;DHT22;32037;50.820;6.494;2023-06-05T03:47:05;24.10;46.10
46309;DHT22;32037;50.820;6.494;2023-06-05T03:49:36;24.20;46.20
46309;DHT22;32037;50.820;6.494;2023-06-05T03:52:09;24.20;46.10
46309;DHT22;32037;50.820;6.494;2023-06-05T03:54:38;24.10;46.00
46309;DHT22;32037;50.820;6.494;2023-06-05T03:57:07;24.10;46.10
46309;DHT22;32037;50.820;6.494;2023-06-05T03:59:42;24.10;46.20
46309;DHT22;32037;50.820;6.494;2023-06-05T04:02:11;24.10;46.20
46309;DHT22;32037;50.820;6.494;2023-06-05T04:04:39;24.10;46.20
46309;DHT22;32037;50.820;6.494;2023-06-05T04:07:08;24.10;46.20
46309;DHT22;32037;50.820;6.494;2023-06-05T04:09:37;24.10;46.30
46309;DHT22;32037;50.820;6.494;2023-06-05T04:12:05;24.10;46.20
46309;DHT22;32037;50.820;6.494;2023-06-05T04:14:35;24.10;46.40
46309;DHT22;32037;50.820;6.494;2023-06-05T04:17:08;24.10;46.40
46309;DHT22;32037;50.820;6.494;2023-06-05T04:19:37;24.10;46.40
46309;DHT22;32037;50.820;6.494;2023-06-05T04:22:06;24.10;46.40
46309;DHT22;32037;50.820;6.494;2023-06-05T04:24:36;24.00;46.30
46309;DHT22;32037;50.820;6.494;2023-06-05T04:27:06;24.00;46.30
46309;DHT22;32037;50.820;6.494;2023-06-05T04:29:35;24.00;46.40
46309;DHT22;32037;50.820;6.494;2023-06-05T04:32:04;24.00;46.30
46309;DHT22;32037;50.820;6.494;2023-06-05T04:34:36;24.00;46.40
46309;DHT22;32037;50.820;6.494;2023-06-05T04:37:05;24.00;46.40
46309;DHT22;32037;50.820;6.494;2023-06-05T04:39:33;24.00;46.40
46309;DHT22;32037;50.820;6.494;2023-06-05T04:42:02;24.00;46.40
46309;DHT22;32037;50.820;6.494;2023-06-05T04:44:53;24.00;46.40
46309;DHT22;32037;50.820;6.494;2023-06-05T04:47:25;24.00;46.60
46309;DHT22;32037;50.820;6.494;2023-06-05T04:49:58;24.00;46.70
46309;DHT22;32037;50.820;6.494;2023-06-05T04:52:27;23.90;46.40
46309;DHT22;32037;50.820;6.494;2023-06-05T04:54:57;24.00;46.70
46309;DHT22;32037;50.820;6.494;2023-06-05T04:57:30;24.00;46.60
46309;DHT22;32037;50.820;6.494;2023-06-05T05:00:01;23.90;46.60
46309;DHT22;32037;50.820;6.494;2023-06-05T05:02:36;23.90;46.50
46309;DHT22;32037;50.820;6.494;2023-06-05T05:05:07;23.90;46.60
46309;DHT22;32037;50.820;6.494;2023-06-05T05:07:43;23.90;46.70
46309;DHT22;32037;50.820;6.494;2023-06-05T05:10:14;23.90;47.80
46309;DHT22;32037;50.820;6.494;2023-06-05T05:12:44;23.90;46.70
46309;DHT22;32037;50.820;6.494;2023-06-05T05:15:14;23.90;46.70
46309;DHT22;32037;50.820;6.494;2023-06-05T05:17:43;23.90;46.70
46309;DHT22;32037;50.820;6.494;2023-06-05T05:20:13;23.90;46.70
46309;DHT22;32037;50.820;6.494;2023-06-05T05:22:42;23.90;46.70
46309;DHT22;32037;50.820;6.494;2023-06-05T05:25:11;23.90;46.70
46309;DHT22;32037;50.820;6.494;2023-06-05T05:27:40;23.90;46.80
46309;DHT22;32037;50.820;6.494;2023-06-05T05:30:09;23.90;46.90
46309;DHT22;32037;50.820;6.494;2023-06-05T05:32:38;23.90;46.80
46309;DHT22;32037;50.820;6.494;2023-06-05T05:35:10;23.90;46.70
46309;DHT22;32037;50.820;6.494;2023-06-05T05:37:40;23.90;46.70
46309;DHT22;32037;50.820;6.494;2023-06-05T05:40:10;23.90;47.00
46309;DHT22;32037;50.820;6.494;2023-06-05T05:42:40;23.90;46.90
46309;DHT22;32037;50.820;6.494;2023-06-05T05:45:10;23.90;46.90
46309;DHT22;32037;50.820;6.494;2023-06-05T05:47:39;23.90;46.90
46309;DHT22;32037;50.820;6.494;2023-06-05T05:50:08;23.90;47.00
46309;DHT22;32037;50.820;6.494;2023-06-05T05:52:37;23.90;47.00
46309;DHT22;32037;50.820;6.494;2023-06-05T05:55:08;23.90;47.10
46309;DHT22;32037;50.820;6.494;2023-06-05T05:57:38;23.90;47.10
46309;DHT22;32037;50.820;6.494;2023-06-05T06:00:07;23.90;47.10
46309;DHT22;32037;50.820;6.494;2023-06-05T06:02:40;23.90;47.20
46309;DHT22;32037;50.820;6.494;2023-06-05T06:05:09;23.90;47.30
46309;DHT22;32037;50.820;6.494;2023-06-05T06:07:39;23.90;47.30
46309;DHT22;32037;50.820;6.494;2023-06-05T06:10:11;23.90;47.50
46309;DHT22;32037;50.820;6.494;2023-06-05T06:12:41;23.90;47.60
46309;DHT22;32037;50.820;6.494;2023-06-05T06:15:10;23.90;47.50
46309;DHT22;32037;50.820;6.494;2023-06-05T06:17:39;23.90;47.40
46309;DHT22;32037;50.820;6.494;2023-06-05T06:20:08;23.90;47.50
46309;DHT22;32037;50.820;6.494;2023-06-05T06:22:40;23.90;47.70
46309;DHT22;32037;50.820;6.494;2023-06-05T06:25:12;23.90;47.80
46309;DHT22;32037;50.820;6.494;2023-06-05T06:27:42;23.80;47.20
46309;DHT22;32037;50.820;6.494;2023-06-05T06:30:11;23.90;47.50
46309;DHT22;32037;50.820;6.494;2023-06-05T06:32:39;23.80;47.70
46309;DHT22;32037;50.820;6.494;2023-06-05T06:35:08;23.80;47.80
46309;DHT22;32037;50.820;6.494;2023-06-05T06:37:37;23.90;48.00
46309;DHT22;32037;50.820;6.494;2023-06-05T06:40:07;23.80;47.80
46309;DHT22;32037;50.820;6.494;2023-06-05T06:42:37;23.80;47.20
46309;DHT22;32037;50.820;6.494;2023-06-05T06:45:16;23.80;47.20
46309;DHT22;32037;50.820;6.494;2023-06-05T06:47:45;23.80;47.70
46309;DHT22;32037;50.820;6.494;2023-06-05T06:50:32;23.80;47.70
46309;DHT22;32037;50.820;6.494;2023-06-05T06:53:01;23.80;47.60
46309;DHT22;32037;50.820;6.494;2023-06-05T06:55:31;23.80;47.80
46309;DHT22;32037;50.820;6.494;2023-06-05T06:58:01;23.80;47.00
46309;DHT22;32037;50.820;6.494;2023-06-05T07:00:30;23.80;47.00
46309;DHT22;32037;50.820;6.494;2023-06-05T07:02:58;23.80;46.90
46309;DHT22;32037;50.820;6.494;2023-06-05T07:05:27;23.80;47.00
46309;DHT22;32037;50.820;6.494;2023-06-05T07:07:56;23.80;46.70
46309;DHT22;32037;50.820;6.494;2023-06-05T07:10:28;23.80;46.40
46309;DHT22;32037;50.820;6.494;2023-06-05T07:12:57;23.80;46.50
46309;DHT22;32037;50.820;6.494;2023-06-05T07:15:27;23.80;46.30
46309;DHT22;32037;50.820;6.494;2023-06-05T07:17:55;23.80;46.40
46309;DHT22;32037;50.820;6.494;2023-06-05T07:20:24;23.90;47.30
46309;DHT22;32037;50.820;6.494;2023-06-05T07:22:53;23.90;45.60
46309;DHT22;32037;50.820;6.494;2023-06-05T07:25:21;23.90;45.30
46309;DHT22;32037;50.820;6.494;2023-06-05T07:27:55;23.90;45.40
46309;DHT22;32037;50.820;6.494;2023-06-05T07:30:28;23.90;46.40
46309;DHT22;32037;50.820;6.494;2023-06-05T07:32:57;23.90;46.10
46309;DHT22;32037;50.820;6.494;2023-06-05T07:35:26;23.90;45.90
46309;DHT22;32037;50.820;6.494;2023-06-05T07:37:57;23.80;46.20
46309;DHT22;32037;50.820;6.494;2023-06-05T07:40:26;23.80;46.30
46309;DHT22;32037;50.820;6.494;2023-06-05T07:42:54;23.80;46.70
46309;DHT22;32037;50.820;6.494;2023-06-05T07:45:23;23.80;46.70
46309;DHT22;32037;50.820;6.494;2023-06-05T07:47:56;23.80;46.80
46309;DHT22;32037;50.820;6.494;2023-06-05T07:50:25;23.80;47.00
46309;DHT22;32037;50.820;6.494;2023-06-05T07:52:55;23.80;47.00
46309;DHT22;32037;50.820;6.494;2023-06-05T07:55:24;23.80;47.10
46309;DHT22;32037;50.820;6.494;2023-06-05T07:57:53;23.80;47.20
46309;DHT22;32037;50.820;6.494;2023-06-05T08:00:23;23.80;47.30
46309;DHT22;32037;50.820;6.494;2023-06-05T08:02:53;23.80;47.30
46309;DHT22;32037;50.820;6.494;2023-06-05T08:05:23;23.80;47.60
46309;DHT22;32037;50.820;6.494;2023-06-05T08:07:51;23.80;47.50
46309;DHT22;32037;50.820;6.494;2023-06-05T08:10:20;23.80;47.60
46309;DHT22;32037;50.820;6.494;2023-06-05T08:12:49;23.80;47.70
46309;DHT22;32037;50.820;6.494;2023-06-05T08:15:18;23.70;47.50
46309;DHT22;32037;50.820;6.494;2023-06-05T08:17:47;23.80;47.60
46309;DHT22;32037;50.820;6.494;2023-06-05T08:20:15;23.80;47.80
46309;DHT22;32037;50.820;6.494;2023-06-05T08:22:45;23.80;47.80
46309;DHT22;32037;50.820;6.494;2023-06-05T08:25:14;23.80;47.70
46309;DHT22;32037;50.820;6.494;2023-06-05T08:27:46;23.80;47.80
46309;DHT22;32037;50.820;6.494;2023-06-05T08:30:15;23.80;47.80
46309;DHT22;32037;50.820;6.494;2023-06-05T08:32:44;23.80;47.80
46309;DHT22;32037;50.820;6.494;2023-06-05T08:35:13;23.70;47.80
46309;DHT22;32037;50.820;6.494;2023-06-05T08:37:42;23.70;47.70
46309;DHT22;32037;50.820;6.494;2023-06-05T08:40:12;23.70;47.80
46309;DHT22;32037;50.820;6.494;2023-06-05T08:42:41;23.80;47.80
46309;DHT22;32037;50.820;6.494;2023-06-05T08:45:11;23.70;47.70
46309;DHT22;32037;50.820;6.494;2023-06-05T08:47:40;23.80;49.20
46309;DHT22;32037;50.820;6.494;2023-06-05T08:50:09;23.80;47.90
46309;DHT22;32037;50.820;6.494;2023-06-05T08:52:39;23.80;48.00
46309;DHT22;32037;50.820;6.494;2023-06-05T08:55:12;23.80;47.70
46309;DHT22;32037;50.820;6.494;2023-06-05T08:57:41;23.80;48.00
46309;DHT22;32037;50.820;6.494;2023-06-05T09:00:10;23.80;48.00
46309;DHT22;32037;50.820;6.494;2023-06-05T09:02:42;23.80;48.00
46309;DHT22;32037;50.820;6.494;2023-06-05T09:05:14;23.80;48.00
46309;DHT22;32037;50.820;6.494;2023-06-05T09:07:43;23.80;47.90
46309;DHT22;32037;50.820;6.494;2023-06-05T09:10:24;23.80;47.80
46309;DHT22;32037;50.820;6.494;2023-06-05T09:12:54;23.80;47.60
46309;DHT22;32037;50.820;6.494;2023-06-05T09:15:25;23.80;47.70
46309;DHT22;32037;50.820;6.494;2023-06-05T09:18:08;23.80;47.70
46309;DHT22;32037;50.820;6.494;2023-06-05T09:20:39;23.80;47.70
46309;DHT22;32037;50.820;6.494;2023-06-05T09:23:29;23.80;47.90
46309;DHT22;32037;50.820;6.494;2023-06-05T09:25:59;23.70;47.90
46309;DHT22;32037;50.820;6.494;2023-06-05T09:28:30;23.80;47.80
46309;DHT22;32037;50.820;6.494;2023-06-05T09:31:00;23.80;47.60
46309;DHT22;32037;50.820;6.494;2023-06-05T09:33:30;23.80;47.90
46309;DHT22;32037;50.820;6.494;2023-06-05T09:36:05;23.80;48.00
46309;DHT22;32037;50.820;6.494;2023-06-05T09:38:36;23.80;48.10
46309;DHT22;32037;50.820;6.494;2023-06-05T09:41:07;23.80;48.00
46309;DHT22;32037;50.820;6.494;2023-06-05T09:43:36;23.90;42.20
46309;DHT22;32037;50.820;6.494;2023-06-05T09:46:09;23.70;42.20
46309;DHT22;32037;50.820;6.494;2023-06-05T09:48:40;23.60;43.10
46309;DHT22;32037;50.820;6.494;2023-06-05T09:51:12;23.60;43.70
46309;DHT22;32037;50.820;6.494;2023-06-05T09:53:43;23.60;43.90
46309;DHT22;32037;50.820;6.494;2023-06-05T09:56:15;23.60;43.40
46309;DHT22;32037;50.820;6.494;2023-06-05T09:58:44;23.60;44.30
46309;DHT22;32037;50.820;6.494;2023-06-05T10:01:15;23.60;44.30
46309;DHT22;32037;50.820;6.494;2023-06-05T10:03:56;23.70;44.50
46309;DHT22;32037;50.820;6.494;2023-06-05T10:06:26;23.70;44.60
46309;DHT22;32037;50.820;6.494;2023-06-05T10:08:56;23.70;44.40
46309;DHT22;32037;50.820;6.494;2023-06-05T10:11:26;23.70;44.60
46309;DHT22;32037;50.820;6.494;2023-06-05T10:13:56;23.70;44.90
46309;DHT22;32037;50.820;6.494;2023-06-05T10:16:27;23.70;45.00
46309;DHT22;32037;50.820;6.494;2023-06-05T10:18:57;23.70;45.20
46309;DHT22;32037;50.820;6.494;2023-06-05T10:21:27;23.70;45.30
46309;DHT22;32037;50.820;6.494;2023-06-05T10:24:00;23.70;45.30
46309;DHT22;32037;50.820;6.494;2023-06-05T10:26:54;23.70;45.60
46309;DHT22;32037;50.820;6.494;2023-06-05T10:29:42;23.80;45.90
46309;DHT22;32037;50.820;6.494;2023-06-05T10:32:17;23.70;45.90
46309;DHT22;32037;50.820;6.494;2023-06-05T10:34:53;23.80;45.40
46309;DHT22;32037;50.820;6.494;2023-06-05T10:37:39;23.70;45.00
46309;DHT22;32037;50.820;6.494;2023-06-05T10:40:09;23.80;45.80
46309;DHT22;32037;50.820;6.494;2023-06-05T10:42:39;23.70;46.00
46309;DHT22;32037;50.820;6.494;2023-06-05T10:45:09;23.80;46.20
46309;DHT22;32037;50.820;6.494;2023-06-05T10:47:52;23.80;46.90
46309;DHT22;32037;50.820;6.494;2023-06-05T10:50:26;23.80;46.30
46309;DHT22;32037;50.820;6.494;2023-06-05T10:52:55;23.80;46.40
46309;DHT22;32037;50.820;6.494;2023-06-05T10:55:26;23.80;46.20
46309;DHT22;32037;50.820;6.494;2023-06-05T10:58:07;23.80;46.20
46309;DHT22;32037;50.820;6.494;2023-06-05T11:01:16;23.80;46.40
46309;DHT22;32037;50.820;6.494;2023-06-05T11:03:55;23.80;45.50
46309;DHT22;32037;50.820;6.494;2023-06-05T11:06:24;23.80;45.60
46309;DHT22;32037;50.820;6.494;2023-06-05T11:09:07;23.80;46.10
46309;DHT22;32037;50.820;6.494;2023-06-05T11:11:57;23.80;46.10
46309;DHT22;32037;50.820;6.494;2023-06-05T11:14:43;23.80;46.20
46309;DHT22;32037;50.820;6.494;2023-06-05T11:17:28;23.80;46.00
46309;DHT22;32037;50.820;6.494;2023-06-05T11:19:57;23.80;46.10
46309;DHT22;32037;50.820;6.494;2023-06-05T11:22:26;23.80;46.10
46309;DHT22;32037;50.820;6.494;2023-06-05T11:25:26;23.80;46.20
46309;DHT22;32037;50.820;6.494;2023-06-05T11:27:56;23.80;46.10
46309;DHT22;32037;50.820;6.494;2023-06-05T11:30:28;23.80;46.20
46309;DHT22;32037;50.820;6.494;2023-06-05T11:33:18;23.80;46.30
46309;DHT22;32037;50.820;6.494;2023-06-05T11:35:49;23.80;46.20
46309;DHT22;32037;50.820;6.494;2023-06-05T11:38:20;23.90;46.40
46309;DHT22;32037;50.820;6.494;2023-06-05T11:40:52;23.90;46.60
46309;DHT22;32037;50.820;6.494;2023-06-05T11:43:20;23.90;46.90
46309;DHT22;32037;50.820;6.494;2023-06-05T11:45:51;23.90;46.90
46309;DHT22;32037;50.820;6.494;2023-06-05T11:48:24;23.90;47.00
46309;DHT22;32037;50.820;6.494;2023-06-05T11:50:55;23.90;47.20
46309;DHT22;32037;50.820;6.494;2023-06-05T11:53:24;23.90;47.20
46309;DHT22;32037;50.820;6.494;2023-06-05T11:55:53;23.90;46.10
46309;DHT22;32037;50.820;6.494;2023-06-05T11:58:35;23.90;46.70
46309;DHT22;32037;50.820;6.494;2023-06-05T12:01:06;23.90;46.70
46309;DHT22;32037;50.820;6.494;2023-06-05T12:03:36;23.90;47.00
46309;DHT22;32037;50.820;6.494;2023-06-05T12:06:06;23.90;47.20
46309;DHT22;32037;50.820;6.494;2023-06-05T12:08:35;23.90;48.10
46309;DHT22;32037;50.820;6.494;2023-06-05T12:11:19;23.90;46.60
46309;DHT22;32037;50.820;6.494;2023-06-05T12:13:49;24.00;46.90
46309;DHT22;32037;50.820;6.494;2023-06-05T12:16:20;23.90;46.90
46309;DHT22;32037;50.820;6.494;2023-06-05T12:18:57;23.90;48.20
46309;DHT22;32037;50.820;6.494;2023-06-05T12:21:41;24.00;46.60
46309;DHT22;32037;50.820;6.494;2023-06-05T12:24:10;23.90;46.00
46309;DHT22;32037;50.820;6.494;2023-06-05T12:26:52;24.00;46.10
46309;DHT22;32037;50.820;6.494;2023-06-05T12:29:23;24.00;46.20
46309;DHT22;32037;50.820;6.494;2023-06-05T12:31:54;24.00;47.70
46309;DHT22;32037;50.820;6.494;2023-06-05T12:34:39;24.00;46.60
46309;DHT22;32037;50.820;6.494;2023-06-05T12:37:27;24.00;46.70
46309;DHT22;32037;50.820;6.494;2023-06-05T12:40:01;24.00;46.70
46309;DHT22;32037;50.820;6.494;2023-06-05T12:42:34;24.00;48.00
46309;DHT22;32037;50.820;6.494;2023-06-05T12:45:04;24.00;46.90
46309;DHT22;32037;50.820;6.494;2023-06-05T12:47:35;24.00;47.00
46309;DHT22;32037;50.820;6.494;2023-06-05T12:50:05;24.00;47.00
46309;DHT22;32037;50.820;6.494;2023-06-05T12:52:34;24.10;46.80
46309;DHT22;32037;50.820;6.494;2023-06-05T12:55:03;24.10;46.70
46309;DHT22;32037;50.820;6.494;2023-06-05T12:57:33;24.10;46.50
46309;DHT22;32037;50.820;6.494;2023-06-05T13:00:03;24.10;45.80
46309;DHT22;32037;50.820;6.494;2023-06-05T13:02:42;24.10;45.60
46309;DHT22;32037;50.820;6.494;2023-06-05T13:05:13;24.10;46.00
46309;DHT22;32037;50.820;6.494;2023-06-05T13:07:42;24.10;46.60
46309;DHT22;32037;50.820;6.494;2023-06-05T13:10:11;24.10;46.30
46309;DHT22;32037;50.820;6.494;2023-06-05T13:12:40;24.10;45.60
46309;DHT22;32037;50.820;6.494;2023-06-05T13:15:10;24.10;46.10
46309;DHT22;32037;50.820;6.494;2023-06-05T13:17:38;24.10;46.30
46309;DHT22;32037;50.820;6.494;2023-06-05T13:20:09;24.20;46.70
46309;DHT22;32037;50.820;6.494;2023-06-05T13:22:38;24.20;46.90
46309;DHT22;32037;50.820;6.494;2023-06-05T13:25:08;24.10;46.90
46309;DHT22;32037;50.820;6.494;2023-06-05T13:27:36;24.10;47.00
46309;DHT22;32037;50.820;6.494;2023-06-05T13:30:06;24.20;47.20
46309;DHT22;32037;50.820;6.494;2023-06-05T13:32:35;24.20;47.00
46309;DHT22;32037;50.820;6.494;2023-06-05T13:35:08;24.20;48.00
46309;DHT22;32037;50.820;6.494;2023-06-05T13:37:37;24.20;46.60
46309;DHT22;32037;50.820;6.494;2023-06-05T13:40:07;24.20;46.60
46309;DHT22;32037;50.820;6.494;2023-06-05T13:42:38;24.20;48.00
46309;DHT22;32037;50.820;6.494;2023-06-05T13:45:08;24.20;46.70
46309;DHT22;32037;50.820;6.494;2023-06-05T13:47:36;24.20;46.00
46309;DHT22;32037;50.820;6.494;2023-06-05T13:50:07;24.20;45.60
46309;DHT22;32037;50.820;6.494;2023-06-05T13:52:36;24.30;46.10
46309;DHT22;32037;50.820;6.494;2023-06-05T13:55:06;24.30;46.50
46309;DHT22;32037;50.820;6.494;2023-06-05T13:57:34;24.30;46.70
46309;DHT22;32037;50.820;6.494;2023-06-05T14:00:04;24.30;46.30
46309;DHT22;32037;50.820;6.494;2023-06-05T14:02:33;24.30;45.60
46309;DHT22;32037;50.820;6.494;2023-06-05T14:05:02;24.30;46.10
46309;DHT22;32037;50.820;6.494;2023-06-05T14:07:32;24.30;46.30
46309;DHT22;32037;50.820;6.494;2023-06-05T14:10:15;24.30;46.40
46309;DHT22;32037;50.820;6.494;2023-06-05T14:12:44;24.30;46.70
46309;DHT22;32037;50.820;6.494;2023-06-05T14:15:12;24.30;46.90
46309;DHT22;32037;50.820;6.494;2023-06-05T14:17:41;24.30;47.10
46309;DHT22;32037;50.820;6.494;2023-06-05T14:20:10;24.30;47.00
46309;DHT22;32037;50.820;6.494;2023-06-05T14:22:41;24.30;46.70
46309;DHT22;32037;50.820;6.494;2023-06-05T14:25:10;24.30;46.90
46309;DHT22;32037;50.820;6.494;2023-06-05T14:27:39;24.40;47.00
46309;DHT22;32037;50.820;6.494;2023-06-05T14:30:08;24.40;46.90
46309;DHT22;32037;50.820;6.494;2023-06-05T14:32:37;24.40;46.20
46309;DHT22;32037;50.820;6.494;2023-06-05T14:35:06;24.40;46.60
46309;DHT22;32037;50.820;6.494;2023-06-05T14:37:34;24.40;46.80
46309;DHT22;32037;50.820;6.494;2023-06-05T14:40:05;24.40;47.00
46309;DHT22;32037;50.820;6.494;2023-06-05T14:42:34;24.40;46.80
46309;DHT22;32037;50.820;6.494;2023-06-05T14:45:03;24.40;47.00
46309;DHT22;32037;50.820;6.494;2023-06-05T14:47:31;24.40;47.20
46309;DHT22;32037;50.820;6.494;2023-06-05T14:50:01;24.50;47.30
46309;DHT22;32037;50.820;6.494;2023-06-05T14:52:30;24.40;47.30
46309;DHT22;32037;50.820;6.494;2023-06-05T14:54:58;24.50;47.40
46309;DHT22;32037;50.820;6.494;2023-06-05T14:57:33;24.50;47.40
46309;DHT22;32037;50.820;6.494;2023-06-05T15:00:02;24.50;47.50
46309;DHT22;32037;50.820;6.494;2023-06-05T15:02:32;24.50;47.50
46309;DHT22;32037;50.820;6.494;2023-06-05T15:05:01;24.50;47.40
46309;DHT22;32037;50.820;6.494;2023-06-05T15:07:37;24.50;47.20
46309;DHT22;32037;50.820;6.494;2023-06-05T15:10:07;24.50;45.90
46309;DHT22;32037;50.820;6.494;2023-06-05T15:12:37;24.50;45.50
46309;DHT22;32037;50.820;6.494;2023-06-05T15:15:07;24.60;45.90
46309;DHT22;32037;50.820;6.494;2023-06-05T15:17:47;24.60;46.60
46309;DHT22;32037;50.820;6.494;2023-06-05T15:20:16;24.50;46.80
46309;DHT22;32037;50.820;6.494;2023-06-05T15:22:46;24.60;47.10
46309;DHT22;32037;50.820;6.494;2023-06-05T15:25:26;24.60;48.40
46309;DHT22;32037;50.820;6.494;2023-06-05T15:27:56;24.60;47.10
46309;DHT22;32037;50.820;6.494;2023-06-05T15:30:24;24.60;47.00
46309;DHT22;32037;50.820;6.494;2023-06-05T15:32:53;24.60;46.90
46309;DHT22;32037;50.820;6.494;2023-06-05T15:35:23;24.60;47.00
46309;DHT22;32037;50.820;6.494;2023-06-05T15:37:52;24.60;47.10
46309;DHT22;32037;50.820;6.494;2023-06-05T15:40:22;24.70;47.40
46309;DHT22;32037;50.820;6.494;2023-06-05T15:43:05;24.60;47.30
46309;DHT22;32037;50.820;6.494;2023-06-05T15:45:35;24.70;47.10
46309;DHT22;32037;50.820;6.494;2023-06-05T15:48:04;24.70;47.20
46309;DHT22;32037;50.820;6.494;2023-06-05T15:50:33;24.70;46.70
46309;DHT22;32037;50.820;6.494;2023-06-05T15:53:02;24.70;47.00
46309;DHT22;32037;50.820;6.494;2023-06-05T15:55:30;24.70;47.10